Time;durP1;ratioP1;P1;durP2;ratioP2;P2;SDS_P1;SDS_P2;PMS_P1;PMS_P2;Temp;Humidity;BMP_temperature;BMP_pressure;BME280_temperature;BME280_humidity;BME280_pressure;Samples;Min_cycle;Max_cycle;Signal;HPM_P1;HPM_P2
2022/03/02 00:01:20;;;;;;;28.10;13.90;;;;;;;-3.31;66.94;99501.83;106258;1277;25368;-70
2022/03/02 00:03:47;;;;;;;29.60;12.90;;;;;;;-3.31;67.05;99497.23;106027;1277;137880;-70
2022/03/02 00:06:13;;;;;;;31.20;13.30;;;;;;;-3.31;66.84;99494.38;106012;1277;22682;-70
2022/03/02 00:08:39;;;;;;;32.30;13.10;;;;;;;-3.31;66.81;99489.80;105708;1277;138659;-71
2022/03/02 00:11:06;;;;;;;33.30;12.70;;;;;;;-3.32;67.09;99488.58;105896;1277;25383;-71
2022/03/02 00:13:32;;;;;;;30.00;12.00;;;;;;;-3.32;67.07;99488.30;106033;1277;25499;-70
2022/03/02 00:15:59;;;;;;;58.30;26.00;;;;;;;-3.34;67.20;99488.13;105777;1277;138167;-70
2022/03/02 00:18:26;;;;;;;76.50;32.90;;;;;;;-3.37;69.22;99488.92;105967;1277;24269;-70
2022/03/02 00:20:53;;;;;;;78.20;31.80;;;;;;;-3.41;70.31;99487.30;105887;1277;139020;-70
2022/03/02 00:23:19;;;;;;;79.90;32.30;;;;;;;-3.46;70.78;99484.66;105962;1277;24256;-70
2022/03/02 00:25:46;;;;;;;73.60;31.40;;;;;;;-3.51;71.27;99482.91;105688;1277;22563;-70
2022/03/02 00:28:13;;;;;;;74.00;29.90;;;;;;;-3.55;71.49;99481.15;105633;1277;138037;-70
2022/03/02 00:30:40;;;;;;;56.90;23.80;;;;;;;-3.58;71.89;99478.39;105850;1277;25225;-70
2022/03/02 00:33:07;;;;;;;57.10;24.20;;;;;;;-3.58;72.09;99476.10;105802;1277;138014;-70
2022/03/02 00:35:34;;;;;;;58.70;24.90;;;;;;;-3.58;71.72;99477.37;105494;1280;24268;-69
2022/03/02 00:38:02;;;;;;;39.00;17.20;;;;;;;-3.58;72.06;99475.23;105755;1277;22634;-70
2022/03/02 00:40:30;;;;;;;35.60;15.70;;;;;;;-3.59;72.33;99470.91;105732;1277;137988;-70
2022/03/02 00:42:57;;;;;;;35.30;16.70;;;;;;;-3.62;72.36;99473.36;106004;1277;22698;-70
2022/03/02 00:45:25;;;;;;;43.10;17.80;;;;;;;-3.64;72.37;99469.98;105581;1277;138137;-70
2022/03/02 00:47:52;;;;;;;44.10;19.00;;;;;;;-3.66;72.38;99469.61;105919;1277;22578;-70
2022/03/02 00:50:18;;;;;;;43.20;20.50;;;;;;;-3.66;72.70;99463.48;105943;1277;22628;-71
2022/03/02 00:52:45;;;;;;;41.50;18.40;;;;;;;-3.66;73.26;99468.05;105630;1280;139721;-70
2022/03/02 00:55:11;;;;;;;45.00;19.30;;;;;;;-3.67;73.63;99466.70;105453;1278;23084;-69
2022/03/02 00:57:38;;;;;;;46.30;19.90;;;;;;;-3.68;73.50;99459.20;105637;1278;138044;-70
2022/03/02 01:00:06;;;;;;;44.90;19.90;;;;;;;-3.70;73.70;99462.49;105816;1277;22554;-70
2022/03/02 01:02:32;;;;;;;50.20;21.90;;;;;;;-3.70;74.30;99459.20;105928;1277;22577;-71
2022/03/02 01:04:59;;;;;;;49.80;20.90;;;;;;;-3.70;74.65;99456.14;105801;1277;138168;-69
2022/03/02 01:07:25;;;;;;;45.20;21.70;;;;;;;-3.72;73.88;99454.86;105729;1277;25379;-71
2022/03/02 01:09:51;;;;;;;52.10;21.40;;;;;;;-3.73;73.68;99450.54;105827;1277;138158;-70
2022/03/02 01:12:17;;;;;;;47.20;21.30;;;;;;;-3.72;73.77;99448.72;105924;1277;25467;-70
2022/03/02 01:14:44;;;;;;;52.00;20.90;;;;;;;-3.73;73.24;99447.67;105488;1278;138291;-70
2022/03/02 01:17:10;;;;;;;49.10;20.10;;;;;;;-3.76;72.92;99443.15;105475;1277;24208;-70
2022/03/02 01:19:38;;;;;;;45.80;20.00;;;;;;;-3.79;72.92;99443.48;106082;1277;23916;-70
2022/03/02 01:22:06;;;;;;;47.80;20.90;;;;;;;-3.85;74.02;99441.95;105833;1277;137979;-70
2022/03/02 01:24:32;;;;;;;49.10;21.10;;;;;;;-3.87;73.63;99442.34;105866;1279;22657;-70
2022/03/02 01:27:01;;;;;;;44.70;19.70;;;;;;;-3.89;73.75;99438.38;105759;1277;139190;-69
2022/03/02 01:29:34;;;;;;;41.40;18.40;;;;;;;-3.87;74.06;99435.39;105786;1277;22566;-69
2022/03/02 01:32:02;;;;;;;44.60;19.50;;;;;;;-3.84;74.26;99434.23;106033;1277;30343;-69
2022/03/02 01:34:28;;;;;;;49.10;20.20;;;;;;;-3.82;74.21;99436.02;105805;1276;137753;-70
2022/03/02 01:36:55;;;;;;;44.30;19.40;;;;;;;-3.80;74.14;99425.80;105885;1277;22732;-69
2022/03/02 01:39:21;;;;;;;47.10;20.00;;;;;;;-3.80;74.52;99429.34;105711;1277;137854;-70
2022/03/02 01:41:47;;;;;;;47.30;19.90;;;;;;;-3.84;74.80;99425.86;105866;1277;22538;-70
2022/03/02 01:44:13;;;;;;;59.10;22.60;;;;;;;-3.85;74.83;99427.25;105947;1277;22544;-70
2022/03/02 01:46:40;;;;;;;56.60;23.10;;;;;;;-3.87;75.11;99425.30;105783;1277;138249;-69
2022/03/02 01:49:06;;;;;;;41.60;19.10;;;;;;;-3.88;75.45;99423.75;105953;1277;25255;-70
2022/03/02 01:51:33;;;;;;;46.50;20.20;;;;;;;-3.87;75.36;99421.36;105583;1277;138647;-70
2022/03/02 01:53:59;;;;;;;44.40;20.20;;;;;;;-3.86;75.11;99416.02;105611;1277;24227;-69
2022/03/02 01:56:26;;;;;;;42.00;18.20;;;;;;;-3.83;75.59;99417.15;105902;1277;25557;-69
2022/03/02 01:58:52;;;;;;;36.90;17.30;;;;;;;-3.80;75.30;99418.83;105739;1277;137971;-69
2022/03/02 02:01:19;;;;;;;43.50;17.50;;;;;;;-3.78;74.98;99422.59;105846;1278;25374;-69
2022/03/02 02:03:46;;;;;;;38.50;15.90;;;;;;;-3.79;74.28;99420.37;105853;1277;138101;-69
2022/03/02 02:06:13;;;;;;;37.20;16.60;;;;;;;-3.82;74.62;99422.90;105673;1277;22556;-69
2022/03/02 02:08:41;;;;;;;36.80;16.50;;;;;;;-3.81;74.61;99416.83;105680;1277;138428;-69
2022/03/02 02:11:10;;;;;;;41.30;17.90;;;;;;;-3.82;74.74;99412.64;106044;1277;22580;-70
2022/03/02 02:13:37;;;;;;;49.40;23.10;;;;;;;-3.84;75.65;99411.16;106001;1277;22567;-69
2022/03/02 02:16:05;;;;;;;52.90;24.70;;;;;;;-3.86;75.84;99411.73;105883;1277;138704;-70
2022/03/02 02:18:32;;;;;;;57.60;24.10;;;;;;;-3.85;76.09;99409.02;105971;1277;22789;-69
2022/03/02 02:21:07;;;;;;;58.90;25.00;;;;;;;-3.86;76.27;99407.67;105675;1277;137961;-69
2022/03/02 02:23:36;;;;;;;60.30;23.90;;;;;;;-3.88;76.39;99406.23;105958;1277;22563;-69
2022/03/02 02:26:03;;;;;;;40.90;17.40;;;;;;;-3.88;76.23;99406.00;106113;1277;24225;-70
2022/03/02 02:28:30;;;;;;;40.40;18.00;;;;;;;-3.86;76.48;99403.77;105762;1277;137738;-70
2022/03/02 02:30:58;;;;;;;40.30;18.60;;;;;;;-3.83;76.10;99400.99;105961;1277;26622;-70
2022/03/02 02:33:26;;;;;;;39.80;17.10;;;;;;;-3.80;76.07;99401.15;105830;1277;138054;-70
2022/03/02 02:35:53;;;;;;;42.10;18.90;;;;;;;-3.77;75.84;99396.48;106048;1277;22637;-70
2022/03/02 02:38:24;;;;;;;43.00;19.50;;;;;;;-3.75;75.83;99391.68;105743;1277;24273;-70
2022/03/02 02:40:51;;;;;;;37.10;16.70;;;;;;;-3.70;76.18;99391.89;105793;1277;139036;-70
2022/03/02 02:43:21;;;;;;;38.60;18.10;;;;;;;-3.60;76.05;99393.06;106044;1277;24227;-70
2022/03/02 02:45:48;;;;;;;41.30;17.30;;;;;;;-3.54;76.25;99388.95;105966;1277;138155;-70
2022/03/02 02:48:14;;;;;;;34.80;15.90;;;;;;;-3.47;76.21;99386.58;106037;1277;25397;-70
2022/03/02 02:50:41;;;;;;;39.80;16.80;;;;;;;-3.42;76.30;99389.35;105874;1277;138783;-71
2022/03/02 02:53:10;;;;;;;38.40;17.60;;;;;;;-3.38;75.91;99387.64;105928;1277;22586;-71
2022/03/02 02:55:38;;;;;;;37.10;16.30;;;;;;;-3.38;76.09;99386.15;105808;1280;22546;-71
2022/03/02 02:58:05;;;;;;;43.50;19.10;;;;;;;-3.36;75.52;99384.23;105614;1280;138288;-72
2022/03/02 03:00:35;;;;;;;39.00;17.90;;;;;;;-3.34;75.87;99386.70;105719;1280;22650;-71
2022/03/02 03:03:03;;;;;;;38.80;17.30;;;;;;;-3.33;75.60;99382.88;105764;1277;138939;-73
2022/03/02 03:05:31;;;;;;;41.30;17.70;;;;;;;-3.31;75.30;99386.79;105940;1277;24316;-72
2022/03/02 03:08:00;;;;;;;37.90;16.80;;;;;;;-3.28;75.71;99384.77;105996;1277;24609;-70
2022/03/02 03:10:27;;;;;;;39.60;18.00;;;;;;;-3.26;74.85;99385.11;106105;1277;138688;-69
2022/03/02 03:12:54;;;;;;;39.70;17.50;;;;;;;-3.24;74.89;99391.14;106005;1278;22566;-69
2022/03/02 03:15:21;;;;;;;38.80;15.50;;;;;;;-3.23;74.62;99385.95;105795;1277;137959;-69
2022/03/02 03:17:49;;;;;;;35.20;14.80;;;;;;;-3.27;74.04;99385.53;105955;1277;22627;-69
2022/03/02 03:20:18;;;;;;;42.20;17.10;;;;;;;-3.33;73.75;99383.11;105826;1277;22668;-69
2022/03/02 03:22:44;;;;;;;36.80;15.30;;;;;;;-3.37;73.67;99379.34;105876;1277;138053;-70
2022/03/02 03:25:12;;;;;;;33.20;14.70;;;;;;;-3.42;73.34;99383.48;105756;1277;24238;-69
2022/03/02 03:27:41;;;;;;;39.40;14.90;;;;;;;-3.48;73.47;99381.16;105912;1277;138217;-70
2022/03/02 03:30:09;;;;;;;38.40;16.30;;;;;;;-3.53;73.48;99377.89;106007;1277;22556;-71
2022/03/02 03:32:35;;;;;;;36.30;14.90;;;;;;;-3.58;73.89;99381.13;106095;1277;25242;-70
2022/03/02 03:35:04;;;;;;;42.60;17.50;;;;;;;-3.62;73.89;99380.25;105998;1277;25496;-70
2022/03/02 03:37:30;;;;;;;40.20;18.00;;;;;;;-3.66;73.67;99375.77;106055;1277;22560;-71
2022/03/02 03:39:57;;;;;;;35.90;16.60;;;;;;;-3.66;73.71;99381.27;105718;1277;138358;-70
2022/03/02 03:42:23;;;;;;;37.00;15.50;;;;;;;-3.65;73.59;99379.82;106023;1277;24142;-70
2022/03/02 03:44:50;;;;;;;33.20;14.30;;;;;;;-3.65;73.72;99377.11;105862;1277;138148;-71
2022/03/02 03:47:17;;;;;;;31.90;13.10;;;;;;;-3.66;73.23;99375.39;106011;1277;25323;-70
2022/03/02 03:49:44;;;;;;;36.90;16.00;;;;;;;-3.68;73.77;99378.39;105984;1277;23995;-71
2022/03/02 03:52:10;;;;;;;32.80;14.40;;;;;;;-3.69;73.54;99372.17;105879;1277;138209;-70
2022/03/02 03:54:37;;;;;;;33.50;13.40;;;;;;;-3.71;73.41;99371.29;106669;1277;22830;-70
2022/03/02 03:57:06;;;;;;;36.10;14.30;;;;;;;-3.75;73.84;99375.48;106143;1277;138102;-70
2022/03/02 03:59:32;;;;;;;36.10;14.90;;;;;;;-3.78;73.68;99371.35;105882;1277;22671;-68
2022/03/02 04:01:59;;;;;;;34.30;15.90;;;;;;;-3.82;73.90;99372.70;105970;1277;22534;-69
2022/03/02 04:04:26;;;;;;;37.00;16.60;;;;;;;-3.85;73.71;99374.00;105983;1277;137980;-69
2022/03/02 04:06:53;;;;;;;42.90;16.90;;;;;;;-3.88;73.89;99367.87;105979;1277;22566;-69
2022/03/02 04:09:19;;;;;;;34.60;16.00;;;;;;;-3.91;73.80;99365.48;105759;1277;139375;-69
2022/03/02 04:11:46;;;;;;;37.40;17.60;;;;;;;-3.93;74.22;99362.11;105924;1277;25478;-70
2022/03/02 04:14:12;;;;;;;36.00;15.50;;;;;;;-3.93;74.04;99366.36;105915;1278;22559;-69
2022/03/02 04:16:38;;;;;;;38.20;16.20;;;;;;;-3.91;74.12;99361.07;105801;1277;138432;-69
2022/03/02 04:19:04;;;;;;;39.60;17.80;;;;;;;-3.90;74.19;99361.30;105966;1277;25394;-69
2022/03/02 04:21:32;;;;;;;46.10;17.90;;;;;;;-3.89;74.19;99357.88;105931;1277;137971;-69
2022/03/02 04:23:59;;;;;;;40.10;17.60;;;;;;;-3.91;73.97;99356.58;105900;1277;26547;-69
2022/03/02 04:26:25;;;;;;;45.00;16.90;;;;;;;-3.90;74.25;99357.61;105934;1277;25433;-69
2022/03/02 04:28:51;;;;;;;44.20;17.90;;;;;;;-3.92;74.05;99360.57;105787;1277;138268;-69
2022/03/02 04:31:18;;;;;;;41.10;16.90;;;;;;;-3.92;74.11;99354.43;105948;1277;24255;-69
2022/03/02 04:33:44;;;;;;;40.40;17.60;;;;;;;-3.94;74.03;99356.89;105965;1277;138429;-69
2022/03/02 04:36:10;;;;;;;38.00;16.80;;;;;;;-3.98;74.04;99350.46;105991;1277;22614;-69
2022/03/02 04:38:37;;;;;;;38.40;18.00;;;;;;;-4.03;73.96;99353.14;105708;1275;138221;-71
2022/03/02 04:41:03;;;;;;;40.70;17.90;;;;;;;-4.08;74.05;99351.70;105967;1277;22627;-69
2022/03/02 04:43:30;;;;;;;44.60;18.90;;;;;;;-4.12;74.11;99350.96;105985;1277;24357;-69
2022/03/02 04:45:56;;;;;;;34.60;16.00;;;;;;;-4.15;74.16;99348.90;105878;1277;138952;-69
2022/03/02 04:48:22;;;;;;;41.90;17.70;;;;;;;-4.16;74.78;99346.69;106110;1277;25548;-69
2022/03/02 04:50:49;;;;;;;46.50;19.70;;;;;;;-4.15;74.32;99342.33;105935;1277;137917;-69
2022/03/02 04:53:16;;;;;;;49.70;19.90;;;;;;;-4.13;74.97;99343.05;106015;1277;24252;-69
2022/03/02 04:55:44;;;;;;;40.90;17.60;;;;;;;-4.12;74.73;99343.67;105971;1277;23036;-69
2022/03/02 04:58:12;;;;;;;44.80;18.30;;;;;;;-4.13;74.82;99343.38;105831;1277;138062;-69
2022/03/02 05:00:39;;;;;;;43.50;17.80;;;;;;;-4.17;74.93;99343.02;105924;1277;23931;-69
2022/03/02 05:03:06;;;;;;;40.20;18.10;;;;;;;-4.22;74.49;99340.08;105619;1278;138114;-69
2022/03/02 05:05:36;;;;;;;47.30;17.20;;;;;;;-4.25;74.40;99336.79;105844;1277;22592;-69
2022/03/02 05:08:02;;;;;;;;;;;;;;;-4.29;74.34;99338.16;106046;1277;22547;-69
2022/03/02 05:10:29;;;;;;;42.50;17.60;;;;;;;-4.32;74.73;99332.77;105932;1277;124164;-69
2022/03/02 05:12:56;;;;;;;45.50;18.40;;;;;;;-4.36;74.67;99328.82;106013;1277;24088;-70
2022/03/02 05:15:23;;;;;;;45.40;17.60;;;;;;;-4.38;74.14;99329.37;105812;1277;138434;-69
2022/03/02 05:17:50;;;;;;;32.90;16.20;;;;;;;-4.38;74.37;99327.44;105791;1277;22565;-70
2022/03/02 05:20:19;;;;;;;42.50;17.30;;;;;;;-4.39;74.37;99329.91;106170;1277;24313;-69
2022/03/02 05:22:46;;;;;;;42.00;17.80;;;;;;;-4.37;74.91;99329.44;105996;1277;137901;-70
2022/03/02 05:25:13;;;;;;;40.40;17.60;;;;;;;-4.35;74.65;99327.73;106206;1277;24431;-70
2022/03/02 05:27:40;;;;;;;43.70;17.00;;;;;;;-4.36;75.12;99323.73;106226;1277;138323;-70
2022/03/02 05:30:09;;;;;;;38.30;16.60;;;;;;;-4.31;74.83;99330.75;106253;1277;22584;-69
2022/03/02 05:32:35;;;;;;;44.80;15.80;;;;;;;-4.30;74.55;99329.77;106177;1277;22569;-69
2022/03/02 05:35:03;;;;;;;37.80;15.80;;;;;;;-4.31;74.56;99330.73;105988;1277;138222;-71
2022/03/02 05:37:29;;;;;;;37.60;14.80;;;;;;;-4.32;74.81;99330.66;106426;1277;22633;-70
2022/03/02 05:39:55;;;;;;;38.70;16.50;;;;;;;-4.35;74.39;99330.00;106098;1277;138501;-69
2022/03/02 05:42:22;;;;;;;35.10;16.50;;;;;;;-4.36;74.72;99332.38;106418;1277;23442;-70
2022/03/02 05:44:49;;;;;;;36.60;16.00;;;;;;;-4.35;74.80;99331.10;106395;1277;139369;-70
2022/03/02 05:47:15;;;;;;;39.10;15.60;;;;;;;-4.33;74.58;99329.85;106109;1277;30533;-69
2022/03/02 05:49:42;;;;;;;32.90;14.50;;;;;;;-4.31;74.70;99331.95;105984;1277;25239;-69
2022/03/02 05:52:08;;;;;;;37.70;15.30;;;;;;;-4.28;74.79;99334.36;106012;1277;137874;-69
2022/03/02 05:54:34;;;;;;;35.60;15.00;;;;;;;-4.27;74.68;99330.36;106014;1277;24246;-69
2022/03/02 05:57:00;;;;;;;38.10;16.70;;;;;;;-4.28;74.69;99333.84;105997;1277;138044;-69
2022/03/02 05:59:27;;;;;;;44.00;17.60;;;;;;;-4.27;74.80;99337.50;106132;1277;22541;-69
2022/03/02 06:01:53;;;;;;;43.20;17.10;;;;;;;-4.27;74.84;99338.88;106108;1277;23071;-69
2022/03/02 06:04:19;;;;;;;41.50;17.10;;;;;;;-4.26;74.76;99338.08;105996;1277;138103;-69
2022/03/02 06:06:45;;;;;;;47.80;19.10;;;;;;;-4.24;75.04;99337.23;106023;1277;22734;-69
2022/03/02 06:09:12;;;;;;;43.50;20.70;;;;;;;-4.23;74.81;99340.48;105908;1277;139361;-69
2022/03/02 06:11:39;;;;;;;56.90;24.00;;;;;;;-4.21;75.25;99338.89;106024;1277;24280;-69
2022/03/02 06:14:07;;;;;;;66.40;26.70;;;;;;;-4.17;75.01;99337.20;106017;1277;24306;-69
2022/03/02 06:16:33;;;;;;;66.60;28.10;;;;;;;-4.14;74.83;99337.48;106026;1277;138114;-69
2022/03/02 06:18:59;;;;;;;69.30;28.40;;;;;;;-4.11;75.16;99342.36;106035;1277;23177;-69
2022/03/02 06:21:29;;;;;;;68.10;29.10;;;;;;;-4.09;75.04;99342.32;105889;1277;137843;-70
2022/03/02 06:23:56;;;;;;;63.40;27.70;;;;;;;-4.07;75.11;99340.36;106183;1277;24272;-69
2022/03/02 06:26:25;;;;;;;68.80;28.20;;;;;;;-4.05;74.72;99337.55;106104;1277;23302;-69
2022/03/02 06:28:51;;;;;;;61.40;26.30;;;;;;;-4.02;74.84;99339.61;105871;1277;138007;-69
2022/03/02 06:31:18;;;;;;;60.60;26.20;;;;;;;-3.99;74.86;99340.98;106274;1277;24298;-69
2022/03/02 06:33:46;;;;;;;57.40;25.60;;;;;;;-3.96;75.17;99339.70;105967;1277;138332;-69
2022/03/02 06:36:14;;;;;;;57.10;25.70;;;;;;;-3.94;74.76;99337.90;106052;1280;22589;-69
2022/03/02 06:38:41;;;;;;;60.70;27.40;;;;;;;-3.92;74.64;99339.31;105945;1280;24622;-69
2022/03/02 06:41:22;;;;;;;62.00;26.50;;;;;;;-3.88;74.84;99336.54;106204;1277;138588;-70
2022/03/02 06:44:11;;;;;;;59.70;25.40;;;;;;;-3.83;74.46;99338.73;106063;1277;25430;-68
2022/03/02 06:47:01;;;;;;;59.70;25.80;;;;;;;-3.78;74.60;99340.27;106121;1277;138131;-69
2022/03/02 06:50:05;;;;;;;57.60;24.70;;;;;;;-3.74;74.26;99338.16;106341;1277;25261;-71
2022/03/02 06:52:35;;;;;;;59.20;25.40;;;;;;;-3.68;74.13;99340.98;106099;1277;137761;-70
2022/03/02 06:55:08;;;;;;;59.70;22.80;;;;;;;-3.66;74.40;99340.98;106259;1277;22980;-69
2022/03/02 06:57:38;;;;;;;49.10;23.20;;;;;;;-3.60;74.43;99343.91;106081;1277;138012;-71
2022/03/02 07:00:16;;;;;;;60.40;26.90;;;;;;;-3.57;74.19;99345.90;106425;1277;22559;-70
2022/03/02 07:02:49;;;;;;;51.70;23.60;;;;;;;-3.54;74.35;99346.71;105989;1277;22598;-70
2022/03/02 07:05:17;;;;;;;48.40;22.50;;;;;;;-3.52;74.03;99348.33;106102;1277;137750;-70
2022/03/02 07:07:44;;;;;;;50.00;23.20;;;;;;;-3.50;73.64;99351.14;106616;1277;24070;-70
2022/03/02 07:10:11;;;;;;;52.50;23.40;;;;;;;-3.48;73.74;99349.55;106328;1277;138760;-70
2022/03/02 07:12:39;;;;;;;55.10;27.00;;;;;;;-3.47;73.49;99346.64;106439;1277;24309;-70
2022/03/02 07:15:07;;;;;;;62.50;28.90;;;;;;;-3.43;73.60;99347.16;105931;1277;139090;-70
2022/03/02 07:17:34;;;;;;;67.20;29.10;;;;;;;-3.37;73.66;99345.64;106262;1276;24232;-69
2022/03/02 07:20:07;;;;;;;73.90;33.40;;;;;;;-3.32;73.79;99342.66;106170;1277;22569;-72
2022/03/02 07:22:43;;;;;;;72.20;31.70;;;;;;;-3.24;74.00;99344.80;105931;1280;137975;-69
2022/03/02 07:25:18;;;;;;;69.10;31.20;;;;;;;-3.15;74.16;99347.77;105967;1277;22678;-69
2022/03/02 07:27:45;;;;;;;74.50;31.80;;;;;;;-3.08;74.03;99350.12;105804;1278;138325;-69
2022/03/02 07:30:12;;;;;;;76.50;32.90;;;;;;;-3.02;73.96;99350.23;105951;1278;25307;-69
2022/03/02 07:32:45;;;;;;;78.20;33.40;;;;;;;-2.98;73.96;99350.57;105962;1277;22565;-70
2022/03/02 07:35:13;;;;;;;78.80;34.10;;;;;;;-2.95;73.60;99347.92;106031;1277;137930;-69
2022/03/02 07:37:39;;;;;;;88.50;36.40;;;;;;;-2.89;73.91;99349.92;106081;1277;22807;-69
2022/03/02 07:40:07;;;;;;;87.30;37.90;;;;;;;-2.87;73.75;99350.40;106013;1277;137950;-69
2022/03/02 07:42:34;;;;;;;94.60;41.40;;;;;;;-2.84;73.59;99348.55;105777;1280;22575;-69
2022/03/02 07:45:01;;;;;;;88.40;43.60;;;;;;;-2.78;73.50;99342.39;105883;1277;139405;-70
2022/03/02 07:47:27;;;;;;;112.80;48.20;;;;;;;-2.74;73.38;99340.52;106290;1277;22548;-70
2022/03/02 07:49:53;;;;;;;106.00;45.90;;;;;;;-2.68;73.48;99340.00;106176;1277;25263;-69
2022/03/02 07:52:25;;;;;;;107.80;47.40;;;;;;;-2.62;73.61;99342.02;106234;1277;138307;-69
2022/03/02 07:54:58;;;;;;;114.60;49.70;;;;;;;-2.57;73.70;99336.21;106022;1277;25261;-69
2022/03/02 07:57:25;;;;;;;108.90;45.20;;;;;;;-2.51;73.68;99336.70;106201;1278;138405;-69
2022/03/02 07:59:53;;;;;;;105.60;46.90;;;;;;;-2.44;73.65;99333.64;106228;1277;22713;-69
2022/03/02 08:02:23;;;;;;;106.70;45.60;;;;;;;-2.35;73.55;99340.47;106054;1277;23966;-69
2022/03/02 08:04:54;;;;;;;100.50;44.30;;;;;;;-2.28;73.56;99340.16;105980;1277;137927;-69
2022/03/02 08:07:21;;;;;;;100.00;42.70;;;;;;;-2.20;73.40;99339.27;105908;1278;24270;-69
2022/03/02 08:09:50;;;;;;;89.40;40.20;;;;;;;-2.13;73.19;99334.67;106196;1277;138596;-70
2022/03/02 08:12:20;;;;;;;89.10;42.10;;;;;;;-2.06;73.04;99333.31;106076;1277;24227;-69
2022/03/02 08:14:48;;;;;;;94.30;41.40;;;;;;;-1.98;72.89;99330.23;106269;1277;22592;-70
2022/03/02 08:17:15;;;;;;;98.90;41.90;;;;;;;-1.91;72.88;99325.52;105900;1277;137863;-72
2022/03/02 08:19:42;;;;;;;90.80;41.30;;;;;;;-1.82;72.88;99327.03;106060;1277;22571;-69
2022/03/02 08:22:15;;;;;;;84.40;37.90;;;;;;;-1.73;72.65;99324.70;106020;1277;138122;-69
2022/03/02 08:24:46;;;;;;;89.50;39.10;;;;;;;-1.61;72.63;99319.64;106130;1278;22855;-70
2022/03/02 08:27:14;;;;;;;80.00;35.90;;;;;;;-1.48;72.32;99319.70;106044;1277;137900;-70
2022/03/02 08:29:41;;;;;;;69.20;30.40;;;;;;;-1.35;72.22;99316.33;106265;1277;24324;-70
2022/03/02 08:32:08;;;;;;;73.60;33.00;;;;;;;-1.22;71.89;99314.55;106322;1277;22597;-70
2022/03/02 08:34:35;;;;;;;51.30;23.10;;;;;;;-1.09;71.51;99310.47;105964;1277;137802;-70
2022/03/02 08:37:02;;;;;;;37.20;18.20;;;;;;;-0.96;71.60;99316.08;106205;1277;22626;-70
2022/03/02 08:39:28;;;;;;;25.00;13.20;;;;;;;-0.82;70.96;99312.64;106061;1277;138377;-70
2022/03/02 08:41:55;;;;;;;25.40;11.90;;;;;;;-0.70;69.95;99307.86;105866;1278;24287;-70
2022/03/02 08:44:22;;;;;;;29.20;12.40;;;;;;;-0.58;69.53;99300.55;105877;1277;24300;-70
2022/03/02 08:46:48;;;;;;;23.80;11.90;;;;;;;-0.44;69.04;99298.91;105912;1277;137809;-70
2022/03/02 08:49:21;;;;;;;24.80;11.90;;;;;;;-0.31;68.85;99298.52;106230;1277;24242;-70
2022/03/02 08:51:50;;;;;;;22.60;11.00;;;;;;;-0.19;68.12;99296.41;106087;1280;138107;-70
2022/03/02 08:54:19;;;;;;;22.50;9.20;;;;;;;-0.08;68.16;99295.40;106003;1277;25168;-70
2022/03/02 08:56:47;;;;;;;21.80;11.40;;;;;;;0.07;67.08;99288.02;106082;1277;22653;-70
2022/03/02 08:59:18;;;;;;;17.20;9.60;;;;;;;0.20;66.50;99280.28;105806;1277;137619;-70
2022/03/02 09:01:50;;;;;;;21.30;10.80;;;;;;;0.32;65.89;99277.61;105850;1277;243342;-70
2022/03/02 09:04:18;;;;;;;21.20;9.90;;;;;;;0.43;65.38;99274.69;106110;1277;137942;-70
2022/03/02 09:06:46;;;;;;;17.30;8.40;;;;;;;0.52;64.83;99266.42;106165;1277;23355;-70
2022/03/02 09:09:13;;;;;;;20.30;9.50;;;;;;;0.62;64.09;99262.88;105855;1277;137718;-70
2022/03/02 09:11:39;;;;;;;17.40;8.40;;;;;;;0.74;64.30;99255.58;106147;1277;24291;-70
2022/03/02 09:14:06;;;;;;;15.60;8.70;;;;;;;0.85;63.68;99255.32;106099;1277;22570;-70
2022/03/02 09:16:33;;;;;;;15.50;9.10;;;;;;;0.96;63.20;99249.83;105919;1277;137565;-70
2022/03/02 09:19:00;;;;;;;16.10;8.40;;;;;;;1.08;63.27;99249.49;106005;1277;22560;-69
2022/03/02 09:21:27;;;;;;;20.00;9.40;;;;;;;1.19;62.18;99246.49;106029;1277;137567;-70
2022/03/02 09:23:55;;;;;;;16.70;9.20;;;;;;;1.28;62.07;99249.59;106214;1277;25477;-70
2022/03/02 09:26:38;;;;;;;21.40;9.70;;;;;;;1.38;61.03;99247.73;105833;1277;24297;-69
2022/03/02 09:29:06;;;;;;;22.40;9.80;;;;;;;1.45;61.02;99246.18;106107;1277;137567;-70
2022/03/02 09:31:34;;;;;;;21.70;11.40;;;;;;;1.54;60.86;99241.65;106063;1277;25302;-69
2022/03/02 09:34:07;;;;;;;19.10;10.00;;;;;;;1.61;59.99;99237.27;105891;1277;137610;-69
2022/03/02 09:36:37;;;;;;;20.90;12.60;;;;;;;1.69;59.97;99234.85;105822;1277;23950;-69
2022/03/02 09:39:10;;;;;;;20.40;11.10;;;;;;;1.78;60.30;99236.55;106240;1277;137839;-70
2022/03/02 09:41:55;;;;;;;26.70;11.90;;;;;;;1.88;60.80;99233.59;106374;1277;22565;-69
2022/03/02 09:44:25;;;;;;;25.30;11.60;;;;;;;2.00;60.38;99232.86;106098;1277;22708;-69
2022/03/02 09:46:56;;;;;;;26.10;11.80;;;;;;;2.07;59.75;99227.57;105881;1280;137746;-70
2022/03/02 09:49:27;;;;;;;21.20;11.60;;;;;;;2.12;58.97;99225.42;106175;1277;22550;-70
2022/03/02 09:52:07;;;;;;;21.10;10.30;;;;;;;2.14;58.74;99224.77;105977;1277;137639;-70
2022/03/02 09:54:39;;;;;;;20.70;9.00;;;;;;;2.17;58.36;99221.06;106151;1277;24206;-71
2022/03/02 09:57:08;;;;;;;22.60;11.50;;;;;;;2.21;57.92;99223.48;105859;1277;137697;-70
2022/03/02 09:59:39;;;;;;;24.60;12.10;;;;;;;2.21;57.85;99218.11;106256;1277;25285;-69
2022/03/02 10:02:08;;;;;;;19.30;10.40;;;;;;;2.23;57.98;99216.30;106067;1277;25316;-69
2022/03/02 10:04:35;;;;;;;18.60;10.30;;;;;;;2.27;57.34;99216.36;105852;1277;137705;-71
2022/03/02 10:10:17;;;;;;;13.50;7.30;;;;;;;2.29;56.75;99201.98;106040;1277;137613;-70
2022/03/02 10:12:43;;;;;;;21.40;11.00;;;;;;;2.33;56.39;99195.95;106561;1277;29621;-71
2022/03/02 10:15:13;;;;;;;18.00;9.70;;;;;;;2.39;56.34;99193.75;105931;1278;139934;-70
2022/03/02 10:17:43;;;;;;;17.90;9.60;;;;;;;2.43;55.83;99187.66;105914;1281;22548;-71
2022/03/02 10:20:15;;;;;;;15.80;8.90;;;;;;;2.50;55.60;99182.66;106041;1277;25323;-72
2022/03/02 10:23:11;;;;;;;18.00;9.20;;;;;;;2.56;55.28;99184.84;106003;1277;137593;-69
2022/03/02 10:26:02;;;;;;;20.90;10.80;;;;;;;2.66;55.93;99182.61;106128;1277;22683;-71
2022/03/02 10:28:49;;;;;;;19.20;9.10;;;;;;;2.82;55.23;99173.38;105727;1281;138426;-72
2022/03/02 10:31:15;;;;;;;15.40;8.20;;;;;;;2.94;54.75;99168.80;105858;1278;22627;-73
2022/03/02 10:34:13;;;;;;;15.30;7.70;;;;;;;3.02;54.94;99168.77;105771;1277;138190;-71
2022/03/02 10:36:42;;;;;;;18.00;9.60;;;;;;;3.11;54.04;99159.93;106084;1278;25589;-71
2022/03/02 10:39:21;;;;;;;17.40;9.20;;;;;;;3.16;53.80;99159.89;105898;1278;137749;-71
2022/03/02 10:41:47;;;;;;;21.40;9.00;;;;;;;3.16;53.17;99158.31;106171;1278;24383;-69
2022/03/02 10:44:52;;;;;;;18.20;8.50;;;;;;;3.19;53.71;99152.90;106124;1277;22579;-68
2022/03/02 10:47:21;;;;;;;21.00;11.10;;;;;;;3.23;53.08;99147.09;106027;1278;137436;-69
2022/03/02 10:49:52;;;;;;;17.50;8.80;;;;;;;3.32;53.92;99145.34;106147;1277;22703;-70
2022/03/02 10:52:21;;;;;;;15.30;9.00;;;;;;;3.43;53.19;99137.27;105958;1281;137857;-70
2022/03/02 10:54:49;;;;;;;16.40;9.40;;;;;;;3.51;52.34;99129.81;106148;1277;22558;-70
2022/03/02 10:57:18;;;;;;;18.50;9.60;;;;;;;3.52;51.72;99123.58;106163;1277;137659;-70
2022/03/02 10:59:45;;;;;;;16.30;8.40;;;;;;;3.53;51.80;99122.69;105820;1280;24309;-70
2022/03/02 11:02:11;;;;;;;15.70;9.60;;;;;;;3.56;51.51;99116.06;106061;1278;22806;-70
2022/03/02 11:04:42;;;;;;;15.40;8.50;;;;;;;3.55;51.35;99115.44;106099;1277;137562;-70
2022/03/02 11:07:10;;;;;;;15.50;9.00;;;;;;;3.56;50.86;99112.50;106124;1278;25358;-70
2022/03/02 11:09:37;;;;;;;19.10;10.00;;;;;;;3.59;50.98;99109.11;106153;1277;137727;-70
2022/03/02 11:12:07;;;;;;;13.50;8.10;;;;;;;3.65;51.07;99103.77;106295;1277;24223;-70
2022/03/02 11:14:33;;;;;;;;;;;;;;;3.70;50.71;99098.66;106048;1277;25373;-72
2022/03/02 11:17:18;;;;;;;16.80;8.60;;;;;;;3.70;50.36;99094.67;105925;1276;124293;-71
2022/03/02 11:19:45;;;;;;;13.40;7.70;;;;;;;3.77;51.03;99093.33;106408;1277;24534;-71